RJDO(METAR)
07/08 14:11
RJDO 080511Z 03017KT 9999 FEW008 SCT025 BKNXXX 25/21 Q1003 RMK
A2964=
戻る
トップページへ戻る
IMOC Co,.Ltd.